Weather History for Lakeville, MN

Change the Weather History Date:

Thursday, November 18, 2010

  Actual Average Record
Temperature  
Mean Temperature 26 °F -  
Max Temperature 28 °F 41 °F 65 °F (1953)
Min Temperature 24 °F 24 °F -1 °F (1989)
Degree Days  
Heating Degree Days 39    
Moisture  
Dew Point 20 °F    
Average Humidity 76    
Maximum Humidity 80    
Minimum Humidity 69    
Precipitation  
Precipitation 0.00 in - - ()
Sea Level Pressure  
Sea Level Pressure 30.30 in    
Wind  
Wind Speed 7 mph (West)    
Max Wind Speed 10 mph    
Max Gust Speed -    
Visibility 10 miles    
Events      
Averages and records for this station are not official NWS values.
T = Trace of Precipitation, MM = Missing Value Source: NWS Daily Summary

Daily Weather History Graph

Daily Weather History Graph

Search for Another Location

Airport:

Trip Planner

Search our weather history database for the weather conditions in past years. The results will help you decide how hot, cold, wet, or windy it might be!

Date:

Astronomy

Nov. 18, 2010 Rise Set
Actual Time 7:13 AM CST 4:42 PM CST
Civil Twilight 6:41 AM CST 5:14 PM CST
Nautical Twilight 6:06 AM CST 5:49 PM CST
Astronomical Twilight 5:31 AM CST 6:24 PM CST
Moon 2:45 PM CST (11/18) 4:06 AM CST (11/18)
Length of Visible Light 10h 32m
Length of Day
9h 28m
Waxing Gibbous, 91% of the Moon is Illuminated
Nov 18
Waxing Gibbous
Nov 21
Full
Nov 28
Last Quarter
Dec 5
New
Dec 13
First Quarter

Hourly Weather History & Observations

Time (CST) Temp. Windchill Dew Point Humidity Pressure Visibility Wind Dir Wind Speed Gust Speed Precip Events Conditions
12:12 AM 28.4 °F 20.4 °F 21.2 °F 74% 30.30 in 10.0 mi NNW 8.1 mph - N/A   Overcast
12:33 AM 28.4 °F 19.1 °F 21.2 °F 74% 30.30 in 10.0 mi NW 10.4 mph - N/A   Overcast
12:52 AM 28.4 °F 19.7 °F 21.2 °F 74% 30.30 in 10.0 mi WNW 9.2 mph - N/A   Overcast
1:12 AM 28.4 °F 20.4 °F 21.2 °F 74% 30.30 in 10.0 mi NW 8.1 mph - N/A   Overcast
1:32 AM 28.4 °F 20.4 °F 21.2 °F 74% 30.31 in 10.0 mi NW 8.1 mph - N/A   Overcast
1:52 AM 28.4 °F 19.1 °F 21.2 °F 74% 30.32 in 10.0 mi WNW 10.4 mph - N/A   Overcast
2:12 AM 28.4 °F 19.7 °F 21.2 °F 74% 30.32 in 10.0 mi NW 9.2 mph - N/A   Overcast
2:32 AM 28.4 °F 19.7 °F 21.2 °F 74% 30.32 in 10.0 mi NW 9.2 mph - N/A   Overcast
2:53 AM 26.6 °F 18.2 °F 21.2 °F 80% 30.33 in 10.0 mi NW 8.1 mph - N/A   Overcast
3:12 AM 26.6 °F 16.8 °F 21.2 °F 80% 30.34 in 10.0 mi NW 10.4 mph - N/A   Overcast
3:32 AM 26.6 °F 16.8 °F 21.2 °F 80% 30.34 in 10.0 mi NW 10.4 mph - N/A   Overcast
3:53 AM 26.6 °F 17.5 °F 21.2 °F 80% 30.34 in 10.0 mi WNW 9.2 mph - N/A   Overcast
4:12 AM 26.6 °F 18.2 °F 21.2 °F 80% 30.33 in 10.0 mi NW 8.1 mph - N/A   Overcast
4:52 AM 26.6 °F 19.1 °F 19.4 °F 74% 30.32 in 10.0 mi NW 6.9 mph - N/A   Overcast
5:12 AM 26.6 °F 19.1 °F 19.4 °F 74% 30.33 in 10.0 mi NNW 6.9 mph - N/A   Overcast
5:32 AM 26.6 °F 18.2 °F 19.4 °F 74% 30.32 in 10.0 mi NW 8.1 mph - N/A   Overcast
5:52 AM 24.8 °F 16.9 °F 19.4 °F 80% 30.33 in 10.0 mi NW 6.9 mph - N/A   Overcast
6:13 AM 24.8 °F 17.9 °F 19.4 °F 80% 30.33 in 10.0 mi NW 5.8 mph - N/A   Overcast
6:32 AM 24.8 °F 16.9 °F 19.4 °F 80% 30.34 in 10.0 mi WNW 6.9 mph - N/A   Overcast
6:52 AM 24.8 °F 19.1 °F 19.4 °F 80% 30.34 in 10.0 mi NW 4.6 mph - N/A   Overcast
7:12 AM 24.8 °F 17.9 °F 19.4 °F 80% 30.34 in 10.0 mi NNW 5.8 mph - N/A   Overcast
7:33 AM 24.8 °F 19.1 °F 19.4 °F 80% 30.35 in 10.0 mi North 4.6 mph - N/A   Overcast
7:52 AM 24.8 °F 17.9 °F 19.4 °F 80% 30.36 in 10.0 mi NW 5.8 mph - N/A   Overcast
8:12 AM 24.8 °F 20.5 °F 17.6 °F 74% 30.36 in 10.0 mi NNW 3.5 mph - N/A   Overcast
8:32 AM 24.8 °F - 17.6 °F 74% 30.36 in 10.0 mi Calm Calm - N/A   Overcast
8:53 AM 24.8 °F - 19.4 °F 80% 30.36 in 10.0 mi Calm Calm - N/A   Overcast
9:13 AM 24.8 °F 20.5 °F 19.4 °F 80% 30.35 in 10.0 mi East 3.5 mph - N/A   Overcast
9:32 AM 26.6 °F - 17.6 °F 69% 30.35 in 10.0 mi Calm Calm - N/A   Overcast
9:52 AM 26.6 °F - 17.6 °F 69% 30.34 in 10.0 mi Calm Calm - N/A   Mostly Cloudy
10:13 AM 26.6 °F - 17.6 °F 69% 30.34 in 10.0 mi Calm Calm - N/A   Overcast
10:32 AM 26.6 °F - 17.6 °F 69% 30.34 in 10.0 mi Calm Calm - N/A   Overcast
10:52 AM 26.6 °F - 17.6 °F 69% 30.34 in 10.0 mi Calm Calm - N/A   Overcast
11:12 AM 26.6 °F 21.2 °F 17.6 °F 69% 30.34 in 10.0 mi SSW 4.6 mph - N/A   Overcast
11:32 AM 26.6 °F - 17.6 °F 69% 30.32 in 10.0 mi Calm Calm - N/A   Overcast
11:52 AM 26.6 °F 21.2 °F 19.4 °F 74% 30.32 in 10.0 mi South 4.6 mph - N/A   Overcast
12:12 PM 26.6 °F - 19.4 °F 74% 30.31 in 10.0 mi Calm Calm - N/A   Overcast
12:32 PM 26.6 °F 22.6 °F 19.4 °F 74% 30.31 in 10.0 mi SSE 3.5 mph - N/A   Overcast
12:52 PM 26.6 °F 21.2 °F 19.4 °F 74% 30.30 in 10.0 mi South 4.6 mph - N/A   Overcast
1:12 PM 26.6 °F 19.1 °F 19.4 °F 74% 30.28 in 10.0 mi South 6.9 mph - N/A   Overcast
1:33 PM 26.6 °F 21.2 °F 19.4 °F 74% 30.28 in 10.0 mi South 4.6 mph - N/A   Overcast
1:52 PM 26.6 °F 19.1 °F 19.4 °F 74% 30.27 in 10.0 mi South 6.9 mph - N/A   Overcast
2:12 PM 26.6 °F 21.2 °F 19.4 °F 74% 30.26 in 10.0 mi SSW 4.6 mph - N/A   Overcast
2:32 PM 26.6 °F 20.0 °F 19.4 °F 74% 30.25 in 10.0 mi South 5.8 mph - N/A   Overcast
2:52 PM 26.6 °F 19.1 °F 21.2 °F 80% 30.25 in 10.0 mi South 6.9 mph - N/A   Overcast
3:13 PM 26.6 °F 18.2 °F 19.4 °F 74% 30.24 in 10.0 mi South 8.1 mph - N/A   Overcast
3:32 PM 26.6 °F 21.2 °F 21.2 °F 80% 30.24 in 10.0 mi South 4.6 mph - N/A   Overcast
3:52 PM 26.6 °F 19.1 °F 21.2 °F 80% 30.23 in 10.0 mi South 6.9 mph - N/A   Overcast
4:13 PM 26.6 °F 20.0 °F 21.2 °F 80% 30.22 in 10.0 mi South 5.8 mph - N/A   Overcast
4:32 PM 26.6 °F 18.2 °F 21.2 °F 80% 30.20 in 10.0 mi South 8.1 mph - N/A   Overcast
5:12 PM 26.6 °F 17.5 °F 21.2 °F 80% 30.18 in 10.0 mi SSE 9.2 mph - N/A   Overcast
5:33 PM 26.6 °F 17.5 °F 21.2 °F 80% 30.17 in 10.0 mi SSE 9.2 mph - N/A   Overcast
5:52 PM 26.6 °F 16.8 °F 21.2 °F 80% 30.15 in 10.0 mi SSE 10.4 mph - N/A   Overcast
6:13 PM 26.6 °F 16.8 °F 21.2 °F 80% 30.14 in 10.0 mi SSE 10.4 mph - N/A   Scattered Clouds
6:32 PM 26.6 °F 18.2 °F 21.2 °F 80% 30.14 in 10.0 mi SSE 8.1 mph - N/A   Mostly Cloudy
6:52 PM 26.6 °F 16.8 °F 21.2 °F 80% 30.12 in 10.0 mi SSE 10.4 mph - N/A   Scattered Clouds
7:12 PM 26.6 °F 17.5 °F 23.0 °F 86% 30.11 in 10.0 mi SSE 9.2 mph - N/A   Clear
7:32 PM 26.6 °F 16.8 °F 23.0 °F 86% 30.11 in 10.0 mi SSE 10.4 mph 16.1 mph N/A   Scattered Clouds
7:53 PM 26.6 °F 17.5 °F 23.0 °F 86% 30.09 in 10.0 mi SSE 9.2 mph - N/A   Mostly Cloudy
8:13 PM 26.6 °F 16.8 °F 23.0 °F 86% 30.08 in 10.0 mi SSE 10.4 mph - N/A   Scattered Clouds
8:32 PM 26.6 °F 16.2 °F 23.0 °F 86% 30.07 in 10.0 mi SSE 11.5 mph 16.1 mph N/A   Scattered Clouds
8:53 PM 26.6 °F 17.5 °F 23.0 °F 86% 30.08 in 10.0 mi SSE 9.2 mph - N/A   Overcast
9:13 PM 26.6 °F 17.5 °F 24.8 °F 93% 30.07 in 10.0 mi SSE 9.2 mph 17.3 mph N/A   Mostly Cloudy
9:32 PM 26.6 °F 17.5 °F 24.8 °F 93% 30.06 in 10.0 mi SSE 9.2 mph - N/A   Scattered Clouds
9:52 PM 26.6 °F 18.2 °F 24.8 °F 93% 30.04 in 10.0 mi SSE 8.1 mph - N/A   Clear
10:12 PM 26.6 °F 18.2 °F 24.8 °F 93% 30.03 in 10.0 mi SSE 8.1 mph - N/A   Clear
10:32 PM 26.6 °F 18.2 °F 24.8 °F 93% 30.03 in 10.0 mi SE 8.1 mph - N/A   Clear
10:52 PM 26.6 °F 17.5 °F 24.8 °F 93% 30.01 in 10.0 mi SSE 9.2 mph - N/A   Clear
11:12 PM 26.6 °F 16.8 °F 24.8 °F 93% 29.99 in 10.0 mi SSE 10.4 mph 16.1 mph N/A   Scattered Clouds
11:32 PM 28.4 °F 19.1 °F 24.8 °F 86% 29.97 in 10.0 mi SE 10.4 mph - N/A   Clear
11:52 PM 28.4 °F 18.5 °F 24.8 °F 86% 29.96 in 10.0 mi SSE 11.5 mph 17.3 mph N/A   Clear